createdAt,value
2023-03-24T00:02:17.239Z,2.30
2023-03-24T00:04:48.544Z,2.22
2023-03-24T00:07:17.977Z,2.53
2023-03-24T00:09:48.412Z,2.55
2023-03-24T00:12:19.437Z,2.00
2023-03-24T00:14:48.560Z,2.22
2023-03-24T00:17:20.987Z,3.00
2023-03-24T00:19:51.029Z,2.50
2023-03-24T00:22:22.066Z,2.58
2023-03-24T00:24:51.087Z,2.22
2023-03-24T00:27:22.050Z,2.30
2023-03-24T00:29:51.101Z,2.33
2023-03-24T00:32:20.160Z,2.50
2023-03-24T00:34:50.262Z,2.50
2023-03-24T00:37:19.488Z,2.08
2023-03-24T00:39:48.520Z,2.40
2023-03-24T00:42:18.509Z,2.20
2023-03-24T00:44:49.185Z,2.60
2023-03-24T00:47:18.788Z,2.30
2023-03-24T00:49:48.713Z,2.47
2023-03-24T00:52:21.350Z,2.20
2023-03-24T00:54:51.628Z,2.50
2023-03-24T00:57:23.769Z,2.35
2023-03-24T00:59:55.468Z,2.28
2023-03-24T01:02:26.127Z,2.10
2023-03-24T01:04:55.875Z,2.45
2023-03-24T01:07:25.903Z,2.33
2023-03-24T01:10:01.200Z,2.35
2023-03-24T01:12:36.140Z,2.53
2023-03-24T01:15:09.569Z,2.20
2023-03-24T01:17:38.720Z,2.72
2023-03-24T01:20:11.637Z,2.40
2023-03-24T01:22:41.998Z,2.20
2023-03-24T01:25:15.010Z,2.38
2023-03-24T01:27:44.323Z,2.65
2023-03-24T01:30:16.112Z,2.40
2023-03-24T01:32:45.217Z,2.13
2023-03-24T01:35:14.255Z,2.28
2023-03-24T01:37:43.491Z,2.40
2023-03-24T01:40:17.904Z,2.72
2023-03-24T01:42:46.994Z,2.40
2023-03-24T01:45:55.701Z,2.40
2023-03-24T01:48:28.202Z,2.05
2023-03-24T01:50:59.826Z,2.20
2023-03-24T01:53:29.822Z,2.10
2023-03-24T01:55:59.259Z,2.15
2023-03-24T01:58:31.930Z,2.20
2023-03-24T02:01:03.385Z,2.30
2023-03-24T02:03:35.641Z,2.67
2023-03-24T02:06:04.798Z,2.22
2023-03-24T02:08:39.421Z,2.53
2023-03-24T02:11:09.496Z,2.22
2023-03-24T02:13:38.609Z,2.40
2023-03-24T02:16:22.526Z,2.50
2023-03-24T02:19:01.338Z,2.63
2023-03-24T02:22:11.199Z,2.28
2023-03-24T02:25:30.191Z,2.50
2023-03-24T02:28:14.706Z,2.80
2023-03-24T02:31:20.150Z,2.50
2023-03-24T02:34:32.918Z,2.63
2023-03-24T02:37:43.756Z,3.00
2023-03-24T02:40:34.168Z,3.20
2023-03-24T02:43:16.423Z,3.03
2023-03-24T02:45:56.025Z,3.15
2023-03-24T02:48:33.572Z,3.20
2023-03-24T02:51:10.150Z,3.60
2023-03-24T02:53:54.073Z,2.90
2023-03-24T02:56:31.207Z,2.97
2023-03-24T02:59:04.063Z,2.85
2023-03-24T03:01:38.674Z,3.20
2023-03-24T03:04:12.874Z,2.70
2023-03-24T03:06:45.018Z,3.20
2023-03-24T03:09:17.199Z,2.60
2023-03-24T03:11:51.743Z,28.95
2023-03-24T03:14:26.254Z,75.90
2023-03-24T03:17:00.900Z,61.78
2023-03-24T03:19:34.524Z,48.47
2023-03-24T03:22:06.958Z,37.15
2023-03-24T03:24:41.161Z,13.70
2023-03-24T03:27:17.449Z,6.82
2023-03-24T03:32:22.542Z,2.75
2023-03-24T03:34:57.491Z,3.35
2023-03-24T03:37:31.728Z,4.10
2023-03-24T03:40:03.829Z,5.32
2023-03-24T03:42:34.723Z,7.20
2023-03-24T03:45:03.982Z,5.00
2023-03-24T03:47:34.495Z,5.90
2023-03-24T03:50:04.312Z,14.68
2023-03-24T03:52:33.440Z,8.65
2023-03-24T03:55:03.203Z,7.45
2023-03-24T03:57:34.353Z,3.63
2023-03-24T04:00:12.847Z,3.10
2023-03-24T04:02:53.570Z,3.20
2023-03-24T04:05:31.291Z,6.45
2023-03-24T04:08:15.583Z,7.30
2023-03-24T04:11:10.229Z,6.68
2023-03-24T04:13:55.482Z,5.50
2023-03-24T04:16:38.121Z,5.45
2023-03-24T04:19:31.200Z,3.95
2023-03-24T04:22:13.926Z,6.18
2023-03-24T04:24:51.901Z,5.70
2023-03-24T04:27:29.725Z,5.97
2023-03-24T04:30:11.401Z,5.25
2023-03-24T04:32:47.246Z,8.45
2023-03-24T04:35:27.375Z,5.22
2023-03-24T04:37:57.366Z,4.43
2023-03-24T04:40:27.580Z,3.53
2023-03-24T04:42:59.249Z,3.35
2023-03-24T04:45:34.053Z,8.77
2023-03-24T04:48:05.581Z,10.65
2023-03-24T04:50:38.058Z,18.20
2023-03-24T04:53:08.493Z,9.85
2023-03-24T04:56:02.293Z,12.13
2023-03-24T04:58:31.291Z,10.80
2023-03-24T05:01:01.977Z,5.25
2023-03-24T05:03:31.060Z,4.35
2023-03-24T05:06:00.339Z,3.97
2023-03-24T05:08:29.352Z,3.45
2023-03-24T05:10:58.321Z,4.03
2023-03-24T05:13:27.270Z,3.55
2023-03-24T05:15:56.718Z,4.25
2023-03-24T05:18:27.568Z,4.28
2023-03-24T05:20:56.548Z,4.15
2023-03-24T05:23:25.729Z,6.65
2023-03-24T05:25:54.731Z,11.50
2023-03-24T05:28:26.910Z,10.07
2023-03-24T05:30:56.343Z,8.75
2023-03-24T05:33:27.396Z,6.20
2023-03-24T05:35:56.433Z,5.57
2023-03-24T05:38:25.485Z,14.57
2023-03-24T05:40:58.332Z,11.38
2023-03-24T05:43:27.676Z,5.50
2023-03-24T05:45:57.395Z,4.20
2023-03-24T05:48:28.315Z,4.30
2023-03-24T05:50:57.358Z,4.15
2023-03-24T05:53:26.697Z,3.92
2023-03-24T05:55:55.704Z,3.97
2023-03-24T05:58:24.986Z,3.70
2023-03-24T06:00:55.372Z,4.13
2023-03-24T06:03:24.569Z,5.65
2023-03-24T06:05:55.274Z,8.40
2023-03-24T06:08:25.448Z,8.35
2023-03-24T06:10:54.372Z,5.80
2023-03-24T06:13:23.399Z,4.30
2023-03-24T06:15:55.494Z,4.00
2023-03-24T06:18:25.077Z,3.92
2023-03-24T06:21:01.635Z,4.20
2023-03-24T06:23:31.159Z,3.97
2023-03-24T06:26:02.128Z,4.15
2023-03-24T06:28:35.334Z,3.50
2023-03-24T06:31:06.944Z,4.10
2023-03-24T06:33:36.081Z,3.60
2023-03-24T06:36:08.201Z,3.55
2023-03-24T06:38:37.367Z,3.50
2023-03-24T06:41:07.117Z,5.00
2023-03-24T06:43:36.497Z,9.20
2023-03-24T06:46:05.788Z,9.45
2023-03-24T06:48:34.921Z,7.80
2023-03-24T06:51:06.016Z,6.40
2023-03-24T06:53:35.044Z,4.22
2023-03-24T06:56:04.024Z,3.80
2023-03-24T06:58:33.941Z,3.42
2023-03-24T07:01:03.088Z,3.60
2023-03-24T07:03:32.477Z,3.10
2023-03-24T07:06:01.862Z,3.15
2023-03-24T07:08:38.243Z,3.00
2023-03-24T07:11:09.883Z,3.22
2023-03-24T07:13:39.171Z,3.25
2023-03-24T07:16:09.099Z,3.28
2023-03-24T07:18:38.130Z,5.05
2023-03-24T07:21:08.388Z,4.43
2023-03-24T07:23:39.249Z,3.47
2023-03-24T07:26:08.409Z,3.63
2023-03-24T07:28:37.672Z,3.55
2023-03-24T07:31:07.669Z,3.90
2023-03-24T07:33:36.732Z,3.35
2023-03-24T07:36:06.206Z,3.35
2023-03-24T07:38:35.859Z,3.55
2023-03-24T07:41:06.766Z,4.50
2023-03-24T07:43:36.167Z,4.25
2023-03-24T07:46:05.348Z,4.43
2023-03-24T07:48:34.461Z,3.92
2023-03-24T07:51:03.467Z,3.78
2023-03-24T07:53:33.235Z,3.92
2023-03-24T07:56:02.264Z,4.03
2023-03-24T07:58:32.960Z,3.92
2023-03-24T08:01:01.985Z,4.00
2023-03-24T08:03:31.030Z,3.75
2023-03-24T08:06:00.803Z,3.60
2023-03-24T08:08:29.906Z,3.92
2023-03-24T08:10:59.089Z,4.10
2023-03-24T08:13:28.383Z,3.70
2023-03-24T08:15:59.069Z,4.13
2023-03-24T08:18:29.012Z,3.78
2023-03-24T08:20:59.545Z,4.20
2023-03-24T08:23:29.118Z,3.88
2023-03-24T08:25:58.140Z,3.95
2023-03-24T08:28:27.161Z,4.13
2023-03-24T08:30:57.951Z,3.40
2023-03-24T08:33:26.971Z,3.92
2023-03-24T08:35:58.726Z,3.90
2023-03-24T08:38:33.907Z,3.78
2023-03-24T08:41:07.557Z,4.22
2023-03-24T08:43:38.296Z,3.65
2023-03-24T08:46:12.514Z,3.63
2023-03-24T08:48:44.101Z,3.50
2023-03-24T08:51:16.315Z,3.50
2023-03-24T08:53:45.577Z,3.38
2023-03-24T08:56:14.535Z,3.70
2023-03-24T08:58:43.541Z,3.60
2023-03-24T09:01:14.412Z,3.65
2023-03-24T09:03:43.483Z,3.45
2023-03-24T09:06:12.823Z,3.50
2023-03-24T09:08:42.202Z,3.53
2023-03-24T09:11:16.961Z,3.20
2023-03-24T09:13:46.796Z,3.83
2023-03-24T09:16:18.845Z,3.42
2023-03-24T09:18:48.362Z,3.60
2023-03-24T09:21:18.035Z,3.58
2023-03-24T09:23:47.813Z,3.88
2023-03-24T09:26:16.758Z,4.10
2023-03-24T09:28:45.789Z,3.90
2023-03-24T09:31:17.049Z,4.47
2023-03-24T09:33:46.679Z,3.88
2023-03-24T09:36:15.671Z,4.78
2023-03-24T09:38:44.784Z,3.92
2023-03-24T09:41:19.287Z,4.30
2023-03-24T09:43:52.266Z,4.30
2023-03-24T09:46:29.008Z,4.15
2023-03-24T09:48:58.795Z,4.53
2023-03-24T09:51:29.261Z,4.10
2023-03-24T09:54:06.893Z,4.32
2023-03-24T09:56:38.649Z,3.92
2023-03-24T09:59:13.610Z,4.32
2023-03-24T10:01:44.528Z,3.92
2023-03-24T10:04:17.979Z,4.13
2023-03-24T10:06:49.283Z,3.95
2023-03-24T10:09:25.397Z,3.88
2023-03-24T10:12:06.751Z,3.72
2023-03-24T10:14:53.745Z,4.35
2023-03-24T10:20:02.362Z,5.18
2023-03-24T10:22:38.487Z,4.45
2023-03-24T10:25:16.580Z,4.15
2023-03-24T10:27:50.052Z,5.13
2023-03-24T10:30:21.910Z,4.60
2023-03-24T10:32:52.633Z,4.28
2023-03-24T10:35:26.300Z,4.28
2023-03-24T10:37:59.129Z,3.92
2023-03-24T10:40:33.245Z,4.30
2023-03-24T10:43:06.253Z,4.43
2023-03-24T10:45:37.827Z,4.18
2023-03-24T10:48:10.220Z,4.18
2023-03-24T10:50:43.885Z,4.00
2023-03-24T10:53:19.947Z,5.38
2023-03-24T10:55:49.769Z,4.28
2023-03-24T10:58:27.964Z,3.97
2023-03-24T11:00:58.390Z,3.85
2023-03-24T11:03:31.674Z,4.05
2023-03-24T11:06:02.365Z,4.15
2023-03-24T11:08:36.949Z,3.65
2023-03-24T11:11:17.102Z,4.50
2023-03-24T11:13:57.697Z,3.45
2023-03-24T11:16:32.456Z,4.00
2023-03-24T11:19:05.364Z,3.72
2023-03-24T11:21:38.073Z,3.58
2023-03-24T11:24:13.594Z,4.10
2023-03-24T11:26:46.677Z,4.17
2023-03-24T11:29:19.834Z,3.88
2023-03-24T11:31:55.513Z,4.22
2023-03-24T11:34:35.157Z,3.67
2023-03-24T11:37:09.179Z,4.15
2023-03-24T11:39:38.432Z,3.80
2023-03-24T11:42:18.169Z,3.80
2023-03-24T11:44:52.525Z,4.05
2023-03-24T11:47:30.453Z,4.32
2023-03-24T11:50:18.730Z,3.95
2023-03-24T11:52:51.924Z,4.00
2023-03-24T11:55:29.713Z,4.43
2023-03-24T11:58:03.444Z,3.83
2023-03-24T12:00:36.384Z,4.85
2023-03-24T12:03:40.675Z,4.22
2023-03-24T12:06:29.038Z,4.20
2023-03-24T12:09:09.141Z,3.90
2023-03-24T12:11:52.789Z,4.10
2023-03-24T12:14:34.251Z,4.30
2023-03-24T12:17:10.175Z,4.18
2023-03-24T12:19:55.551Z,4.05
2023-03-24T12:22:41.761Z,4.07
2023-03-24T12:25:30.068Z,4.50
2023-03-24T12:28:14.345Z,3.90
2023-03-24T12:30:51.101Z,4.25
2023-03-24T12:33:32.679Z,3.63
2023-03-24T12:36:32.747Z,3.92
2023-03-24T12:39:10.534Z,3.97
2023-03-24T12:41:58.734Z,4.57
2023-03-24T12:44:46.865Z,3.90
2023-03-24T12:47:31.621Z,4.10
2023-03-24T12:50:13.390Z,4.00
2023-03-24T12:55:42.037Z,4.30
2023-03-24T12:58:19.289Z,4.30
2023-03-24T13:00:58.904Z,4.18
2023-03-24T13:03:33.991Z,4.05
2023-03-24T13:06:17.547Z,4.00
2023-03-24T13:08:59.954Z,4.30
2023-03-24T13:11:37.724Z,4.28
2023-03-24T13:14:13.308Z,4.03
2023-03-24T13:16:44.696Z,4.63
2023-03-24T13:19:22.009Z,3.90
2023-03-24T13:21:54.956Z,4.00
2023-03-24T13:24:27.022Z,4.60
2023-03-24T13:27:06.889Z,4.25
2023-03-24T13:30:03.191Z,4.13
2023-03-24T13:32:36.359Z,4.15
2023-03-24T13:35:13.644Z,3.95
2023-03-24T13:37:46.784Z,4.20
2023-03-24T13:40:23.424Z,4.30
2023-03-24T13:42:58.120Z,3.95
2023-03-24T13:45:36.823Z,3.60
2023-03-24T13:48:19.312Z,3.97
2023-03-24T13:50:56.753Z,4.20
2023-03-24T13:53:39.745Z,4.57
2023-03-24T13:56:11.096Z,4.60
2023-03-24T13:59:10.208Z,4.13
2023-03-24T14:01:40.527Z,4.30
2023-03-24T14:04:29.087Z,5.03
2023-03-24T14:06:59.908Z,5.13
2023-03-24T14:09:30.493Z,5.20
2023-03-24T14:12:20.680Z,5.05
2023-03-24T14:15:16.240Z,5.00
2023-03-24T14:17:47.016Z,4.97
2023-03-24T14:20:29.177Z,5.03
2023-03-24T14:22:58.326Z,5.40
2023-03-24T14:25:30.369Z,4.90
2023-03-24T14:28:19.145Z,5.10
2023-03-24T14:31:04.221Z,5.15
2023-03-24T14:33:33.326Z,5.30
2023-03-24T14:36:12.935Z,5.45
2023-03-24T14:38:44.150Z,5.32
2023-03-24T14:41:17.268Z,4.88
2023-03-24T14:43:57.963Z,5.53
2023-03-24T14:46:48.440Z,5.78
2023-03-24T14:49:31.326Z,5.28
2023-03-24T14:52:04.611Z,5.68
2023-03-24T14:54:39.904Z,5.13
2023-03-24T14:57:10.364Z,5.25
2023-03-24T14:59:47.590Z,5.80
2023-03-24T15:02:28.253Z,5.07
2023-03-24T15:05:22.503Z,5.13
2023-03-24T15:08:13.955Z,5.13
2023-03-24T15:10:47.776Z,5.35
2023-03-24T15:13:38.531Z,5.10
2023-03-24T15:16:18.501Z,5.45
2023-03-24T15:19:00.724Z,5.97
2023-03-24T15:21:33.888Z,5.75
2023-03-24T15:24:03.806Z,6.10
2023-03-24T15:26:33.766Z,6.50
2023-03-24T15:29:05.584Z,6.75
2023-03-24T15:31:34.961Z,6.00
2023-03-24T15:34:26.467Z,6.45
2023-03-24T15:36:57.334Z,6.57
2023-03-24T15:39:28.825Z,6.47
2023-03-24T15:41:57.836Z,6.80
2023-03-24T15:44:29.332Z,6.80
2023-03-24T15:47:00.532Z,5.80
2023-03-24T15:49:34.242Z,5.82
2023-03-24T15:52:05.249Z,5.70
2023-03-24T15:54:44.107Z,5.30
2023-03-24T15:57:18.005Z,4.70
2023-03-24T15:59:49.490Z,4.38
2023-03-24T16:02:34.929Z,4.68
2023-03-24T16:05:12.923Z,3.75
2023-03-24T16:07:43.421Z,4.30
2023-03-24T16:10:33.250Z,3.72
2023-03-24T16:13:15.388Z,4.00
2023-03-24T16:15:46.280Z,4.15
2023-03-24T16:18:18.804Z,3.65
2023-03-24T16:20:49.794Z,3.28
2023-03-24T16:23:20.041Z,3.83
2023-03-24T16:25:49.086Z,5.10
2023-03-24T16:28:21.151Z,5.25
2023-03-24T16:30:58.023Z,4.78
2023-03-24T16:33:28.387Z,4.75
2023-03-24T16:35:59.170Z,5.07
2023-03-24T16:38:28.450Z,4.40
2023-03-24T16:41:00.958Z,4.15
2023-03-24T16:43:34.005Z,4.47
2023-03-24T16:46:05.539Z,4.53
2023-03-24T16:48:34.808Z,4.22
2023-03-24T16:51:05.691Z,3.92
2023-03-24T16:53:34.696Z,4.10
2023-03-24T16:56:03.847Z,4.10
2023-03-24T16:58:32.933Z,3.92
2023-03-24T17:01:02.516Z,3.78
2023-03-24T17:03:31.671Z,3.70
2023-03-24T17:06:00.778Z,4.15
2023-03-24T17:08:31.581Z,4.28
2023-03-24T17:11:00.602Z,4.03
2023-03-24T17:13:29.675Z,3.58
2023-03-24T17:15:58.745Z,3.75
2023-03-24T17:18:27.871Z,4.55
2023-03-24T17:20:57.060Z,4.35
2023-03-24T17:23:27.444Z,3.03
2023-03-24T17:25:58.109Z,3.70
2023-03-24T17:28:27.104Z,3.75
2023-03-24T17:30:56.141Z,3.95
2023-03-24T17:33:25.138Z,3.30
2023-03-24T17:35:54.992Z,3.60
2023-03-24T17:38:24.075Z,3.55
2023-03-24T17:41:02.569Z,3.70
2023-03-24T17:43:31.645Z,4.30
2023-03-24T17:46:01.296Z,3.88
2023-03-24T17:48:30.601Z,3.72
2023-03-24T17:50:59.640Z,3.53
2023-03-24T17:53:28.786Z,3.85
2023-03-24T17:55:59.530Z,3.65
2023-03-24T17:58:31.584Z,4.13
2023-03-24T18:01:07.876Z,4.35
2023-03-24T18:03:38.909Z,3.80
2023-03-24T18:06:09.899Z,4.43
2023-03-24T18:08:39.832Z,3.90
2023-03-24T18:11:10.375Z,4.07
2023-03-24T18:13:41.234Z,4.40
2023-03-24T18:16:20.504Z,4.00
2023-03-24T18:18:50.668Z,4.68
2023-03-24T18:21:20.732Z,3.95
2023-03-24T18:23:50.156Z,3.90
2023-03-24T18:26:20.064Z,3.50
2023-03-24T18:28:50.743Z,3.75
2023-03-24T18:31:21.392Z,4.40
2023-03-24T18:33:51.302Z,3.60
2023-03-24T18:36:27.603Z,4.10
2023-03-24T18:39:00.847Z,3.80
2023-03-24T18:41:31.222Z,3.63
2023-03-24T18:44:02.101Z,4.10
2023-03-24T18:46:31.366Z,3.40
2023-03-24T18:49:00.568Z,3.40
2023-03-24T18:51:29.962Z,3.42
2023-03-24T18:53:59.081Z,3.97
2023-03-24T18:56:28.181Z,3.10
2023-03-24T18:58:57.225Z,3.60
2023-03-24T19:01:27.943Z,4.07
2023-03-24T19:03:57.200Z,3.45
2023-03-24T19:06:31.816Z,3.90
2023-03-24T19:09:00.992Z,3.67
2023-03-24T19:11:29.942Z,3.70
2023-03-24T19:14:00.130Z,3.40
2023-03-24T19:16:30.890Z,3.85
2023-03-24T19:19:01.032Z,3.83
2023-03-24T19:21:30.110Z,3.60
2023-03-24T19:23:59.285Z,3.70
2023-03-24T19:26:28.269Z,3.67
2023-03-24T19:28:58.265Z,3.40
2023-03-24T19:31:27.284Z,3.17
2023-03-24T19:33:57.974Z,3.40
2023-03-24T19:36:27.044Z,3.47
2023-03-24T19:38:56.603Z,3.85
2023-03-24T19:41:27.188Z,3.50
2023-03-24T19:43:56.283Z,3.92
2023-03-24T19:46:25.494Z,3.88
2023-03-24T19:48:54.550Z,3.03
2023-03-24T19:51:25.583Z,3.47
2023-03-24T19:53:54.622Z,3.13
2023-03-24T19:56:23.714Z,3.28
2023-03-24T19:58:54.964Z,3.17
2023-03-24T20:01:24.627Z,3.20
2023-03-24T20:03:54.475Z,3.45
2023-03-24T20:06:25.328Z,3.38
2023-03-24T20:08:54.309Z,3.30
2023-03-24T20:11:23.299Z,3.58
2023-03-24T20:13:52.341Z,2.75
2023-03-24T20:16:21.624Z,3.15
2023-03-24T20:18:50.699Z,3.60
2023-03-24T20:21:23.475Z,3.38
2023-03-24T20:23:54.284Z,3.08
2023-03-24T20:26:23.469Z,2.90
2023-03-24T20:28:52.581Z,3.30
2023-03-24T20:31:21.780Z,3.30
2023-03-24T20:33:51.098Z,3.67
2023-03-24T20:36:20.198Z,3.10
2023-03-24T20:38:49.311Z,3.00
2023-03-24T20:41:20.669Z,2.85
2023-03-24T20:43:49.726Z,2.88
2023-03-24T20:46:19.621Z,2.65
2023-03-24T20:48:48.690Z,3.20
2023-03-24T20:51:20.983Z,2.47
2023-03-24T20:53:50.176Z,2.30
2023-03-24T20:56:20.939Z,2.63
2023-03-24T20:58:51.050Z,2.58
2023-03-24T21:01:22.904Z,2.40
2023-03-24T21:03:53.529Z,2.45
2023-03-24T21:06:22.968Z,2.55
2023-03-24T21:08:53.394Z,2.20
2023-03-24T21:11:24.064Z,2.15
2023-03-24T21:13:53.097Z,2.42
2023-03-24T21:16:22.158Z,1.98
2023-03-24T21:18:51.176Z,2.00
2023-03-24T21:21:20.173Z,2.10
2023-03-24T21:23:49.195Z,1.92
2023-03-24T21:26:18.905Z,2.22
2023-03-24T21:28:49.634Z,2.10
2023-03-24T21:31:21.836Z,2.25
2023-03-24T21:33:52.155Z,2.17
2023-03-24T21:36:22.425Z,2.30
2023-03-24T21:38:54.744Z,2.40
2023-03-24T21:41:23.937Z,2.22
2023-03-24T21:43:55.105Z,2.20
2023-03-24T21:46:28.111Z,2.30
2023-03-24T21:49:00.851Z,2.13
2023-03-24T21:51:34.935Z,2.15
2023-03-24T21:54:05.593Z,2.38
2023-03-24T21:56:35.548Z,2.28
2023-03-24T21:59:06.290Z,2.20
2023-03-24T22:01:36.796Z,2.25
2023-03-24T22:04:06.835Z,2.20
2023-03-24T22:06:39.359Z,2.03
2023-03-24T22:09:11.177Z,2.00
2023-03-24T22:11:43.493Z,2.30
2023-03-24T22:14:14.249Z,2.00
2023-03-24T22:16:43.462Z,1.98
2023-03-24T22:19:12.487Z,2.30
2023-03-24T22:21:41.515Z,2.25
2023-03-24T22:24:10.896Z,2.30
2023-03-24T22:26:39.912Z,2.17
2023-03-24T22:29:09.034Z,2.10
2023-03-24T22:31:43.471Z,2.35
2023-03-24T22:34:14.693Z,2.10
2023-03-24T22:36:43.866Z,2.15
2023-03-24T22:39:12.949Z,2.20
2023-03-24T22:41:44.601Z,2.20
2023-03-24T22:44:13.636Z,2.15
2023-03-24T22:46:44.424Z,2.40
2023-03-24T22:49:13.467Z,2.00
2023-03-24T22:51:42.906Z,2.20
2023-03-24T22:54:12.035Z,2.08
2023-03-24T22:56:41.062Z,2.00
2023-03-24T22:59:10.180Z,1.92
2023-03-24T23:01:39.238Z,2.42
2023-03-24T23:04:10.045Z,2.13
2023-03-24T23:06:39.273Z,2.28
2023-03-24T23:09:08.539Z,2.45
2023-03-24T23:11:37.607Z,2.00
2023-03-24T23:14:07.027Z,2.20
2023-03-24T23:16:40.773Z,2.38
2023-03-24T23:19:13.088Z,2.25
2023-03-24T23:21:43.099Z,2.10
2023-03-24T23:24:12.482Z,2.45
2023-03-24T23:26:41.529Z,2.20
2023-03-24T23:29:10.681Z,2.25
2023-03-24T23:31:41.436Z,2.53
2023-03-24T23:34:13.409Z,2.30
2023-03-24T23:36:45.820Z,2.30
2023-03-24T23:39:14.793Z,2.30
2023-03-24T23:41:43.801Z,2.60
2023-03-24T23:44:12.798Z,2.50
2023-03-24T23:46:44.254Z,2.35
2023-03-24T23:49:14.899Z,2.55
2023-03-24T23:51:43.937Z,2.72
2023-03-24T23:54:12.950Z,2.35
2023-03-24T23:56:42.345Z,2.22
2023-03-24T23:59:12.748Z,2.33
